Cape Sakura — 7JHZ — position and weather

sailwx.info

Track history (hours):
 
Tides and Currents Weather Stations Pressure Air Temp Water Temp Dewpoint Dewpoint Depression Visibility Wind Speed Wind Dir Waves Ship Positions

Cape Sakura

Last reported at 2017-Jun-06 15:34 UTC. Time now 2017-Jun-22 14:20 UTC.
Position S 30°53' E 031°01'.
Warning: this ship's position is 15 days out of date.

Length 292 m; draft 8.3 m.

Type: Cargo ship. MMSI: 432786000.

Date/timePositionNaut miles runAvg speedWind from/ knotsBaromVisibWave heightAir tempDewpointWater temp
2017-Jun-06 15:34S 30°53' E 031°01'111.5
2017-Jun-06 15:31S 30°53' E 031°00'611.5
2017-Jun-06 15:00S 30°59' E 030°57'611.3
2017-Jun-06 14:31S 31°04' E 030°55'611.2
2017-Jun-06 14:00S 31°09' E 030°53'611.0
2017-Jun-06 13:30S 31°14' E 030°51'510.9
2017-Jun-06 13:01S 31°20' E 030°49'611.1
2017-Jun-06 12:30S 31°25' E 030°47'611.3
2017-Jun-06 12:00S 31°30' E 030°46'811.2
2017-Jun-06 11:16S 31°38' E 030°43'  
2017-Jun-03 20:11S 29°11' E 041°24'310.7
2017-Jun-03 19:55S 29°10' E 041°27'  
2017-May-30 15:25S 19°51' E 058°52'510.5
2017-May-30 14:56S 19°47' E 058°55'1110.6
2017-May-30 13:56S 19°39' E 059°02'710.7
2017-May-30 13:17S 19°33' E 059°06'510.6
2017-May-30 12:49S 19°29' E 059°09'410.8
2017-May-30 12:29S 19°26' E 059°12'610.8
2017-May-30 11:54S 19°21' E 059°16'610.8
2017-May-30 11:21S 19°16' E 059°20'410.8
2017-May-30 10:56S 19°13' E 059°23'510.4
2017-May-30 10:29S 19°09' E 059°26'  
Track history (hours):
 
Tides and Currents Weather Stations Pressure Air Temp Water Temp Dewpoint Dewpoint Depression Visibility Wind Speed Wind Dir Waves Ship Positions

Cape Sakura

Last reported at 2017-Jun-06 15:34 UTC. Time now 2017-Jun-22 14:20 UTC.
Position S 30°53' E 031°01'.
Warning: this ship's position is 15 days out of date.

Length 292 m; draft 8.3 m.

Type: Cargo ship. MMSI: 432786000.

Date/timePositionNaut miles runAvg speedWind from/ knotsBaromVisibWave heightAir tempDewpointWater temp
2017-Jun-06 15:34S 30°53' E 031°01'111.5
2017-Jun-06 15:31S 30°53' E 031°00'611.5
2017-Jun-06 15:00S 30°59' E 030°57'611.3
2017-Jun-06 14:31S 31°04' E 030°55'611.2
2017-Jun-06 14:00S 31°09' E 030°53'611.0
2017-Jun-06 13:30S 31°14' E 030°51'510.9
2017-Jun-06 13:01S 31°20' E 030°49'611.1
2017-Jun-06 12:30S 31°25' E 030°47'611.3
2017-Jun-06 12:00S 31°30' E 030°46'811.2
2017-Jun-06 11:16S 31°38' E 030°43'  
2017-Jun-03 20:11S 29°11' E 041°24'310.7
2017-Jun-03 19:55S 29°10' E 041°27'  
2017-May-30 15:25S 19°51' E 058°52'510.5
2017-May-30 14:56S 19°47' E 058°55'1110.6
2017-May-30 13:56S 19°39' E 059°02'710.7
2017-May-30 13:17S 19°33' E 059°06'510.6
2017-May-30 12:49S 19°29' E 059°09'410.8
2017-May-30 12:29S 19°26' E 059°12'610.8
2017-May-30 11:54S 19°21' E 059°16'610.8
2017-May-30 11:21S 19°16' E 059°20'410.8
2017-May-30 10:56S 19°13' E 059°23'510.4
2017-May-30 10:29S 19°09' E 059°26'  

Dump ship's entire track history